createdAt,value
2019-05-25T00:00:54.776Z,2.50
2019-05-25T00:03:23.057Z,1.97
2019-05-25T00:05:52.240Z,2.33
2019-05-25T00:08:21.336Z,2.33
2019-05-25T00:10:49.816Z,2.03
2019-05-25T00:13:17.984Z,2.17
2019-05-25T00:15:46.587Z,2.20
2019-05-25T00:18:14.879Z,2.47
2019-05-25T00:20:43.461Z,2.17
2019-05-25T00:23:11.604Z,2.30
2019-05-25T00:25:39.908Z,1.80
2019-05-25T00:28:08.379Z,1.83
2019-05-25T00:30:37.848Z,1.93
2019-05-25T00:33:08.422Z,2.03
2019-05-25T00:35:38.285Z,2.60
2019-05-25T00:38:08.256Z,2.23
2019-05-25T00:40:37.700Z,1.97
2019-05-25T00:43:05.910Z,2.00
2019-05-25T00:45:34.334Z,2.07
2019-05-25T00:48:03.167Z,1.83
2019-05-25T00:50:32.798Z,2.17
2019-05-25T00:53:02.217Z,1.80
2019-05-25T00:55:30.439Z,2.00
2019-05-25T00:57:58.867Z,2.00
2019-05-25T01:00:27.525Z,1.60
2019-05-25T01:02:56.391Z,2.10
2019-05-25T01:05:24.799Z,1.73
2019-05-25T01:07:53.365Z,1.70
2019-05-25T01:10:21.529Z,1.87
2019-05-25T01:12:49.797Z,1.37
2019-05-25T01:15:18.735Z,1.53
2019-05-25T01:17:47.739Z,1.77
2019-05-25T01:20:17.164Z,1.97
2019-05-25T01:22:45.371Z,1.47
2019-05-25T01:25:15.659Z,1.50
2019-05-25T01:27:44.191Z,1.90
2019-05-25T01:30:13.211Z,1.67
2019-05-25T01:32:41.784Z,2.23
2019-05-25T01:35:11.072Z,1.60
2019-05-25T01:37:39.439Z,1.73
2019-05-25T01:40:08.569Z,1.97
2019-05-25T01:42:37.131Z,1.70
2019-05-25T01:45:08.155Z,1.53
2019-05-25T01:47:36.342Z,1.60
2019-05-25T01:50:05.549Z,1.50
2019-05-25T01:52:34.471Z,1.83
2019-05-25T01:55:03.042Z,1.70
2019-05-25T01:57:32.417Z,1.53
2019-05-25T02:00:01.101Z,1.57
2019-05-25T02:02:29.289Z,1.77
2019-05-25T02:04:57.988Z,1.50
2019-05-25T02:07:26.869Z,1.30
2019-05-25T02:09:55.057Z,1.67
2019-05-25T02:12:23.339Z,1.20
2019-05-25T02:14:52.069Z,1.43
2019-05-25T02:17:20.223Z,1.63
2019-05-25T02:19:48.748Z,1.40
2019-05-25T02:22:17.419Z,1.43
2019-05-25T02:24:45.988Z,1.40
2019-05-25T02:27:14.165Z,1.47
2019-05-25T02:29:42.655Z,1.57
2019-05-25T02:32:10.973Z,1.50
2019-05-25T02:34:39.174Z,1.57
2019-05-25T02:37:07.349Z,1.30
2019-05-25T02:39:35.532Z,1.50
2019-05-25T02:42:04.617Z,1.43
2019-05-25T02:44:33.084Z,1.63
2019-05-25T02:47:01.564Z,2.60
2019-05-25T02:49:30.136Z,1.50
2019-05-25T02:51:58.258Z,1.40
2019-05-25T02:54:26.915Z,1.87
2019-05-25T02:56:55.089Z,1.70
2019-05-25T02:59:23.267Z,1.60
2019-05-25T03:01:51.619Z,1.67
2019-05-25T03:04:20.066Z,1.93
2019-05-25T03:06:50.503Z,2.10
2019-05-25T03:09:22.699Z,2.27
2019-05-25T03:11:52.730Z,2.27
2019-05-25T03:14:21.424Z,2.03
2019-05-25T03:16:49.933Z,2.33
2019-05-25T03:19:18.171Z,1.60
2019-05-25T03:21:46.618Z,1.63
2019-05-25T03:24:15.122Z,1.97
2019-05-25T03:26:43.253Z,1.90
2019-05-25T03:29:11.629Z,2.40
2019-05-25T03:31:40.939Z,1.83
2019-05-25T03:34:09.831Z,1.90
2019-05-25T03:36:38.188Z,2.27
2019-05-25T03:39:07.447Z,2.10
2019-05-25T03:41:35.723Z,2.53
2019-05-25T03:44:04.034Z,1.80
2019-05-25T03:46:32.469Z,2.17
2019-05-25T03:49:00.828Z,1.80
2019-05-25T03:51:30.312Z,2.17
2019-05-25T03:53:58.848Z,1.80
2019-05-25T03:56:27.388Z,1.80
2019-05-25T03:58:55.524Z,2.23
2019-05-25T04:01:24.260Z,1.83
2019-05-25T04:03:52.843Z,1.93
2019-05-25T04:06:21.336Z,2.03
2019-05-25T04:08:49.506Z,2.37
2019-05-25T04:11:17.652Z,2.07
2019-05-25T04:13:45.958Z,2.23
2019-05-25T04:16:14.579Z,2.37
2019-05-25T04:18:43.660Z,2.40
2019-05-25T04:21:12.427Z,3.33
2019-05-25T04:23:40.837Z,2.40
2019-05-25T04:26:22.028Z,2.87
2019-05-25T04:28:41.132Z,2.30
2019-05-25T04:31:09.742Z,2.47
2019-05-25T04:33:38.262Z,2.77
2019-05-25T04:36:07.140Z,2.27
2019-05-25T04:38:35.477Z,2.63
2019-05-25T04:41:04.181Z,2.03
2019-05-25T04:43:32.458Z,2.80
2019-05-25T04:46:00.606Z,2.20
2019-05-25T04:48:29.124Z,2.40
2019-05-25T04:50:57.316Z,2.00
2019-05-25T04:53:25.463Z,1.80
2019-05-25T04:55:53.790Z,1.90
2019-05-25T04:58:22.431Z,1.97
2019-05-25T05:00:50.606Z,2.10
2019-05-25T05:03:18.889Z,2.40
2019-05-25T05:05:47.257Z,1.97
2019-05-25T05:08:15.686Z,3.17
2019-05-25T05:10:44.171Z,2.57
2019-05-25T05:13:12.355Z,2.60
2019-05-25T05:15:40.889Z,3.00
2019-05-25T05:18:09.024Z,2.90
2019-05-25T05:20:37.299Z,2.87
2019-05-25T05:23:05.735Z,2.90
2019-05-25T05:25:34.497Z,2.60
2019-05-25T05:28:03.626Z,2.73
2019-05-25T05:30:33.353Z,2.40
2019-05-25T05:33:02.248Z,2.90
2019-05-25T05:35:32.626Z,2.77
2019-05-25T05:38:04.568Z,3.80
2019-05-25T05:40:34.533Z,3.30
2019-05-25T05:43:10.323Z,2.60
2019-05-25T05:45:42.431Z,3.07
2019-05-25T05:48:12.595Z,3.10
2019-05-25T05:50:41.734Z,2.77
2019-05-25T05:53:10.246Z,3.00
2019-05-25T05:55:38.410Z,3.40
2019-05-25T05:58:06.649Z,2.93
2019-05-25T06:00:35.590Z,2.90
2019-05-25T06:03:05.580Z,2.70
2019-05-25T06:05:33.749Z,2.60
2019-05-25T06:08:01.972Z,2.50
2019-05-25T06:10:30.104Z,3.33
2019-05-25T06:12:58.541Z,3.50
2019-05-25T06:15:26.780Z,2.90
2019-05-25T06:17:54.972Z,3.50
2019-05-25T06:20:23.592Z,3.23
2019-05-25T06:22:53.639Z,3.63
2019-05-25T06:25:22.125Z,3.40
2019-05-25T06:27:50.426Z,3.50
2019-05-25T06:30:19.380Z,3.50
2019-05-25T06:32:47.589Z,3.87
2019-05-25T06:35:16.040Z,3.90
2019-05-25T06:37:44.248Z,4.07
2019-05-25T06:40:13.336Z,3.97
2019-05-25T06:42:41.581Z,3.63
2019-05-25T06:45:11.359Z,4.20
2019-05-25T06:47:39.720Z,3.47
2019-05-25T06:50:09.984Z,4.00
2019-05-25T06:52:38.439Z,3.40
2019-05-25T06:55:07.230Z,3.80
2019-05-25T06:57:43.136Z,3.53
2019-05-25T07:00:08.488Z,3.13
2019-05-25T07:02:36.857Z,3.13
2019-05-25T07:05:06.200Z,2.63
2019-05-25T07:07:34.575Z,3.50
2019-05-25T07:10:03.144Z,3.53
2019-05-25T07:12:31.306Z,3.10
2019-05-25T07:15:01.349Z,3.10
2019-05-25T07:17:29.888Z,3.23
2019-05-25T07:19:58.160Z,3.57
2019-05-25T07:22:26.642Z,3.07
2019-05-25T07:24:54.788Z,3.00
2019-05-25T07:27:23.312Z,2.87
2019-05-25T07:29:52.340Z,3.10
2019-05-25T07:32:20.828Z,2.93
2019-05-25T07:34:48.995Z,2.70
2019-05-25T07:37:17.674Z,2.17
2019-05-25T07:39:46.194Z,2.20
2019-05-25T07:42:14.738Z,2.67
2019-05-25T07:44:42.899Z,2.07
2019-05-25T07:47:11.086Z,2.17
2019-05-25T07:49:39.669Z,2.30
2019-05-25T07:52:08.514Z,2.10
2019-05-25T07:54:37.507Z,2.33
2019-05-25T07:57:05.635Z,2.63
2019-05-25T07:59:34.250Z,2.30
2019-05-25T08:02:03.263Z,2.03
2019-05-25T08:04:31.600Z,2.53
2019-05-25T08:06:59.807Z,2.23
2019-05-25T08:09:28.368Z,2.40
2019-05-25T08:11:56.576Z,2.10
2019-05-25T08:14:24.724Z,2.03
2019-05-25T08:16:53.553Z,2.20
2019-05-25T08:19:21.787Z,2.10
2019-05-25T08:21:50.013Z,2.20
2019-05-25T08:24:18.553Z,1.77
2019-05-25T08:26:46.805Z,2.20
2019-05-25T08:29:15.385Z,2.17
2019-05-25T08:31:44.053Z,2.50
2019-05-25T08:34:12.595Z,2.50
2019-05-25T08:36:42.091Z,2.33
2019-05-25T08:39:10.585Z,2.70
2019-05-25T08:41:39.797Z,2.43
2019-05-25T08:44:08.011Z,2.50
2019-05-25T08:46:36.715Z,2.20
2019-05-25T08:49:04.875Z,2.90
2019-05-25T08:51:33.168Z,3.10
2019-05-25T08:54:01.361Z,2.80
2019-05-25T08:56:29.891Z,2.83
2019-05-25T08:58:58.170Z,2.33
2019-05-25T09:01:27.224Z,1.80
2019-05-25T09:03:55.884Z,2.83
2019-05-25T09:06:24.029Z,2.40
2019-05-25T09:08:52.400Z,2.47
2019-05-25T09:11:21.189Z,2.40
2019-05-25T09:13:49.454Z,2.67
2019-05-25T09:16:18.268Z,2.70
2019-05-25T09:18:46.517Z,2.90
2019-05-25T09:21:15.194Z,2.70
2019-05-25T09:23:43.540Z,3.07
2019-05-25T09:26:13.447Z,2.87
2019-05-25T09:28:43.786Z,2.23
2019-05-25T09:31:12.426Z,2.63
2019-05-25T09:33:40.981Z,2.60
2019-05-25T09:36:10.007Z,2.80
2019-05-25T09:38:38.212Z,2.70
2019-05-25T09:41:07.312Z,2.67
2019-05-25T09:43:36.032Z,3.00
2019-05-25T09:46:04.595Z,2.90
2019-05-25T09:48:33.166Z,2.80
2019-05-25T09:51:01.885Z,2.43
2019-05-25T09:53:30.447Z,3.23
2019-05-25T09:55:59.005Z,2.70
2019-05-25T09:58:28.399Z,2.67
2019-05-25T10:00:56.670Z,3.07
2019-05-25T10:03:25.302Z,3.00
2019-05-25T10:05:53.457Z,3.00
2019-05-25T10:08:22.322Z,2.97
2019-05-25T10:10:50.515Z,2.90
2019-05-25T10:13:19.042Z,3.90
2019-05-25T10:15:47.257Z,3.20
2019-05-25T10:18:15.829Z,3.20
2019-05-25T10:20:44.289Z,3.30
2019-05-25T10:23:12.589Z,2.90
2019-05-25T10:25:41.106Z,3.40
2019-05-25T10:28:09.527Z,2.63
2019-05-25T10:30:37.936Z,2.73
2019-05-25T10:33:06.237Z,2.87
2019-05-25T10:35:34.526Z,2.70
2019-05-25T10:38:03.022Z,2.47
2019-05-25T10:40:31.301Z,2.73
2019-05-25T10:43:00.439Z,2.77
2019-05-25T10:45:28.956Z,3.20
2019-05-25T10:47:57.257Z,2.60
2019-05-25T10:50:25.670Z,3.10
2019-05-25T10:52:54.257Z,4.00
2019-05-25T10:55:22.450Z,3.20
2019-05-25T10:57:50.741Z,3.67
2019-05-25T11:03:07.749Z,2.80
2019-05-25T11:05:36.033Z,3.13
2019-05-25T11:08:04.546Z,2.73
2019-05-25T11:10:32.788Z,3.00
2019-05-25T11:13:00.929Z,3.13
2019-05-25T11:15:29.292Z,3.77
2019-05-25T11:17:57.482Z,3.50
2019-05-25T11:20:25.796Z,2.50
2019-05-25T11:22:54.123Z,3.30
2019-05-25T11:25:22.559Z,3.10
2019-05-25T11:27:51.015Z,2.90
2019-05-25T11:30:22.036Z,4.20
2019-05-25T11:32:50.446Z,2.77
2019-05-25T11:35:18.888Z,3.17
2019-05-25T11:37:47.950Z,2.70
2019-05-25T11:40:17.178Z,2.80
2019-05-25T11:42:45.429Z,2.90
2019-05-25T11:45:15.811Z,2.37
2019-05-25T11:47:44.344Z,3.23
2019-05-25T11:50:14.639Z,2.93
2019-05-25T11:52:43.767Z,2.30
2019-05-25T11:55:13.195Z,3.10
2019-05-25T11:57:41.486Z,2.47
2019-05-25T12:00:23.639Z,2.90
2019-05-25T12:02:41.893Z,2.70
2019-05-25T12:05:11.086Z,2.87
2019-05-25T12:07:39.250Z,2.80
2019-05-25T12:10:07.856Z,3.00
2019-05-25T12:12:36.253Z,3.10
2019-05-25T12:15:11.941Z,2.60
2019-05-25T12:17:40.590Z,2.40
2019-05-25T12:20:11.202Z,2.90
2019-05-25T12:22:39.770Z,3.03
2019-05-25T12:25:08.983Z,2.70
2019-05-25T12:27:37.191Z,2.30
2019-05-25T12:30:06.571Z,2.77
2019-05-25T12:32:35.256Z,2.40
2019-05-25T12:35:04.527Z,2.90
2019-05-25T12:37:32.789Z,2.60
2019-05-25T12:40:01.546Z,3.20
2019-05-25T12:42:29.985Z,3.07
2019-05-25T12:45:01.173Z,2.97
2019-05-25T12:47:29.426Z,2.60
2019-05-25T12:49:57.940Z,3.23
2019-05-25T12:52:26.488Z,3.13
2019-05-25T12:54:55.282Z,3.40
2019-05-25T12:57:24.338Z,2.90
2019-05-25T12:59:52.911Z,2.93
2019-05-25T13:02:21.849Z,3.37
2019-05-25T13:04:50.362Z,2.67
2019-05-25T13:07:18.881Z,3.20
2019-05-25T13:09:47.166Z,2.87
2019-05-25T13:12:15.348Z,2.87
2019-05-25T13:14:43.638Z,3.03
2019-05-25T13:17:11.981Z,2.97
2019-05-25T13:19:40.441Z,3.30
2019-05-25T13:22:08.694Z,3.07
2019-05-25T13:24:37.266Z,2.90
2019-05-25T13:27:06.107Z,2.60
2019-05-25T13:29:34.738Z,2.23
2019-05-25T13:32:03.040Z,2.37
2019-05-25T13:34:31.883Z,2.50
2019-05-25T13:37:01.925Z,2.67
2019-05-25T13:39:30.735Z,3.20
2019-05-25T13:41:59.361Z,2.23
2019-05-25T13:44:28.008Z,3.20
2019-05-25T13:46:56.275Z,2.17
2019-05-25T13:49:24.929Z,2.27
2019-05-25T13:51:53.073Z,2.43
2019-05-25T13:54:23.400Z,2.70
2019-05-25T13:56:52.164Z,3.10
2019-05-25T13:59:20.425Z,2.93
2019-05-25T14:01:48.954Z,2.67
2019-05-25T14:04:17.115Z,2.03
2019-05-25T14:06:45.928Z,2.57
2019-05-25T14:09:16.000Z,2.10
2019-05-25T14:11:44.566Z,2.40
2019-05-25T14:14:12.908Z,2.10
2019-05-25T14:16:41.175Z,2.13
2019-05-25T14:19:09.706Z,2.20
2019-05-25T14:21:38.605Z,2.33
2019-05-25T14:24:07.188Z,2.10
2019-05-25T14:26:35.703Z,2.17
2019-05-25T14:29:04.359Z,2.63
2019-05-25T14:31:44.810Z,2.13
2019-05-25T14:34:02.800Z,2.13
2019-05-25T14:36:31.345Z,2.17
2019-05-25T14:38:59.534Z,2.17
2019-05-25T14:41:28.231Z,2.50
2019-05-25T14:43:57.061Z,2.57
2019-05-25T14:46:28.156Z,2.13
2019-05-25T14:48:55.393Z,2.27
2019-05-25T14:51:23.915Z,2.13
2019-05-25T14:53:52.103Z,2.03
2019-05-25T14:56:20.381Z,1.80
2019-05-25T14:58:48.907Z,2.30
2019-05-25T15:01:17.243Z,2.20
2019-05-25T15:03:46.351Z,1.70
2019-05-25T15:06:20.526Z,2.23
2019-05-25T15:08:46.027Z,2.30
2019-05-25T15:11:14.724Z,2.10
2019-05-25T15:13:43.314Z,1.93
2019-05-25T15:16:11.571Z,2.40
2019-05-25T15:18:41.255Z,2.80
2019-05-25T15:21:10.990Z,2.20
2019-05-25T15:23:39.734Z,2.50
2019-05-25T15:26:08.694Z,2.10
2019-05-25T15:28:37.603Z,1.70
2019-05-25T15:31:06.491Z,1.90
2019-05-25T15:33:35.385Z,3.57
2019-05-25T15:36:04.219Z,2.37
2019-05-25T15:38:33.210Z,2.80
2019-05-25T15:41:01.539Z,2.83
2019-05-25T15:43:30.380Z,2.33
2019-05-25T15:45:59.444Z,2.50
2019-05-25T15:48:28.171Z,2.10
2019-05-25T15:50:57.180Z,2.17
2019-05-25T15:53:25.735Z,2.40
2019-05-25T15:55:55.948Z,2.00
2019-05-25T15:58:24.891Z,2.30
2019-05-25T16:00:53.544Z,2.20
2019-05-25T16:03:22.472Z,2.80
2019-05-25T16:05:50.968Z,2.63
2019-05-25T16:08:19.689Z,2.50
2019-05-25T16:10:48.405Z,2.50
2019-05-25T16:13:17.178Z,2.97
2019-05-25T16:15:45.475Z,2.77
2019-05-25T16:18:13.693Z,2.73
2019-05-25T16:20:42.558Z,2.83
2019-05-25T16:23:10.845Z,3.20
2019-05-25T16:25:41.381Z,2.70
2019-05-25T16:28:09.621Z,2.93
2019-05-25T16:30:38.147Z,2.10
2019-05-25T16:35:37.008Z,2.87
2019-05-25T16:37:07.771Z,2.40
2019-05-25T16:38:05.753Z,2.57
2019-05-25T16:40:34.044Z,2.70
2019-05-25T16:43:03.281Z,2.23
2019-05-25T16:45:31.426Z,2.27
2019-05-25T16:48:00.481Z,2.50
2019-05-25T16:50:29.393Z,2.83
2019-05-25T16:52:57.605Z,3.03
2019-05-25T16:55:26.102Z,2.83
2019-05-25T16:57:54.264Z,3.20
2019-05-25T17:00:28.796Z,3.43
2019-05-25T17:02:58.928Z,3.30
2019-05-25T17:05:27.750Z,2.10
2019-05-25T17:07:56.722Z,2.13
2019-05-25T17:10:25.141Z,2.60
2019-05-25T17:12:53.830Z,2.37
2019-05-25T17:15:22.536Z,2.30
2019-05-25T17:17:51.152Z,2.93
2019-05-25T17:20:19.781Z,2.67
2019-05-25T17:22:48.347Z,2.80
2019-05-25T17:25:17.208Z,3.17
2019-05-25T17:27:45.750Z,2.60
2019-05-25T17:30:15.922Z,2.83
2019-05-25T17:32:44.481Z,3.17
2019-05-25T17:35:15.291Z,2.97
2019-05-25T17:37:43.452Z,5.30
2019-05-25T17:40:12.967Z,4.33
2019-05-25T17:42:41.154Z,2.80
2019-05-25T17:45:11.223Z,3.73
2019-05-25T17:47:39.441Z,3.00
2019-05-25T17:50:08.174Z,2.60
2019-05-25T17:52:36.690Z,2.80
2019-05-25T17:55:06.935Z,2.77
2019-05-25T17:57:35.422Z,3.07
2019-05-25T18:00:06.770Z,3.07
2019-05-25T18:02:35.111Z,2.80
2019-05-25T18:05:03.699Z,2.53
2019-05-25T18:07:31.943Z,3.07
2019-05-25T18:10:00.747Z,3.20
2019-05-25T18:12:29.057Z,2.57
2019-05-25T18:14:57.613Z,2.53
2019-05-25T18:17:26.667Z,2.73
2019-05-25T18:19:54.980Z,3.00
2019-05-25T18:22:24.418Z,3.60
2019-05-25T18:24:52.584Z,6.03
2019-05-25T18:27:20.752Z,5.07
2019-05-25T18:29:49.291Z,3.63
2019-05-25T18:32:17.784Z,4.03
2019-05-25T18:34:46.312Z,3.90
2019-05-25T18:37:14.562Z,3.20
2019-05-25T18:39:43.160Z,3.97
2019-05-25T18:42:11.641Z,4.00
2019-05-25T18:44:47.506Z,2.97
2019-05-25T18:47:16.240Z,3.07
2019-05-25T18:49:44.387Z,3.00
2019-05-25T18:52:12.953Z,3.40
2019-05-25T18:54:41.250Z,2.90
2019-05-25T18:57:10.110Z,3.33
2019-05-25T18:59:38.258Z,3.00
2019-05-25T19:02:06.437Z,3.50
2019-05-25T19:04:44.615Z,3.40
2019-05-25T19:07:05.481Z,3.47
2019-05-25T19:09:33.664Z,3.30
2019-05-25T19:12:02.091Z,4.60
2019-05-25T19:14:30.566Z,3.43
2019-05-25T19:16:58.858Z,3.00
2019-05-25T19:19:27.579Z,5.13
2019-05-25T19:21:56.259Z,3.97
2019-05-25T19:24:24.949Z,3.90
2019-05-25T19:26:53.644Z,4.37
2019-05-25T19:29:22.746Z,4.73
2019-05-25T19:31:51.395Z,3.37
2019-05-25T19:34:19.581Z,4.00
2019-05-25T19:36:47.766Z,5.00
2019-05-25T19:39:15.916Z,3.90
2019-05-25T19:41:44.788Z,3.77
2019-05-25T19:44:13.075Z,3.23
2019-05-25T19:46:41.353Z,3.60
2019-05-25T19:49:09.756Z,5.37
2019-05-25T19:51:38.857Z,5.70
2019-05-25T19:54:07.019Z,5.13
2019-05-25T19:56:35.528Z,5.07
2019-05-25T19:59:04.114Z,4.57
2019-05-25T20:01:32.303Z,3.63
2019-05-25T20:04:00.617Z,4.03
2019-05-25T20:06:29.361Z,2.87
2019-05-25T20:08:57.720Z,3.37
2019-05-25T20:11:25.975Z,3.30
2019-05-25T20:13:54.403Z,3.43
2019-05-25T20:16:25.047Z,3.53
2019-05-25T20:18:53.214Z,3.90
2019-05-25T20:21:21.473Z,8.43
2019-05-25T20:23:49.634Z,12.17
2019-05-25T20:26:17.792Z,4.90
2019-05-25T20:28:46.090Z,4.90
2019-05-25T20:31:14.646Z,4.53
2019-05-25T20:33:43.217Z,4.67
2019-05-25T20:36:11.874Z,4.50
2019-05-25T20:38:40.418Z,3.53
2019-05-25T20:41:09.292Z,2.70
2019-05-25T20:43:37.501Z,2.70
2019-05-25T20:46:06.170Z,2.93
2019-05-25T20:48:35.425Z,2.93
2019-05-25T20:51:03.620Z,2.90
2019-05-25T20:53:33.518Z,2.77
2019-05-25T20:56:01.710Z,3.50
2019-05-25T20:58:29.916Z,3.30
2019-05-25T21:00:58.134Z,3.27
2019-05-25T21:03:26.430Z,3.80
2019-05-25T21:05:54.890Z,3.50
2019-05-25T21:08:23.072Z,3.50
2019-05-25T21:10:52.064Z,3.23
2019-05-25T21:13:20.811Z,4.20
2019-05-25T21:15:49.562Z,4.07
2019-05-25T21:18:20.648Z,3.57
2019-05-25T21:20:49.335Z,3.30
2019-05-25T21:23:17.631Z,3.80
2019-05-25T21:25:45.864Z,3.87
2019-05-25T21:28:14.124Z,4.10
2019-05-25T21:30:42.277Z,6.30
2019-05-25T21:33:10.863Z,8.33
2019-05-25T21:35:39.463Z,9.60
2019-05-25T21:38:08.073Z,10.93
2019-05-25T21:40:36.432Z,10.93
2019-05-25T21:43:05.057Z,11.13
2019-05-25T21:45:33.583Z,10.30
2019-05-25T21:48:02.094Z,9.37
2019-05-25T21:50:30.813Z,10.27
2019-05-25T21:52:59.006Z,9.63
2019-05-25T21:55:27.167Z,8.87
2019-05-25T21:57:55.979Z,8.40
2019-05-25T22:00:26.076Z,8.77
2019-05-25T22:02:54.529Z,7.67
2019-05-25T22:05:22.800Z,7.90
2019-05-25T22:07:52.790Z,7.47
2019-05-25T22:10:21.092Z,8.43
2019-05-25T22:12:51.720Z,8.13
2019-05-25T22:15:19.903Z,6.57
2019-05-25T22:17:48.055Z,4.70
2019-05-25T22:20:16.447Z,5.47
2019-05-25T22:22:45.937Z,6.20
2019-05-25T22:25:14.304Z,5.67
2019-05-25T22:27:42.569Z,5.97
2019-05-25T22:30:11.449Z,6.50
2019-05-25T22:32:39.731Z,6.23
2019-05-25T22:35:08.944Z,5.73
2019-05-25T22:37:37.925Z,6.13
2019-05-25T22:40:06.866Z,6.00
2019-05-25T22:42:35.347Z,6.60
2019-05-25T22:45:04.388Z,5.77
2019-05-25T22:47:32.573Z,6.30
2019-05-25T22:50:00.800Z,5.90
2019-05-25T22:52:29.539Z,5.90
2019-05-25T22:54:57.756Z,5.73
2019-05-25T22:57:26.492Z,6.07
2019-05-25T22:59:54.675Z,5.40
2019-05-25T23:02:23.164Z,5.20
2019-05-25T23:04:51.821Z,5.70
2019-05-25T23:07:20.350Z,5.03
2019-05-25T23:09:49.261Z,5.07
2019-05-25T23:12:17.455Z,4.40
2019-05-25T23:14:45.639Z,5.57
2019-05-25T23:17:14.509Z,4.93
2019-05-25T23:19:42.700Z,4.60
2019-05-25T23:22:11.165Z,5.30
2019-05-25T23:24:39.379Z,4.93
2019-05-25T23:27:07.985Z,4.40
2019-05-25T23:29:36.569Z,5.50
2019-05-25T23:32:04.908Z,5.00
2019-05-25T23:34:33.156Z,5.03
2019-05-25T23:37:14.240Z,5.17
2019-05-25T23:39:31.741Z,5.23
2019-05-25T23:42:00.104Z,5.43
2019-05-25T23:44:28.253Z,4.50
2019-05-25T23:46:56.560Z,4.37
2019-05-25T23:49:24.891Z,4.33
2019-05-25T23:51:53.217Z,4.20
2019-05-25T23:54:21.422Z,4.17
2019-05-25T23:56:50.678Z,4.87
2019-05-25T23:59:19.380Z,5.53
